sensor_id;sensor_type;location;lat;lon;timestamp;P1;durP1;ratioP1;P2;durP2;ratioP2
13061;SDS011;6597;52.218;9.882;2023-08-31T00:00:33;15.47;;;9.10;;
13061;SDS011;6597;52.218;9.882;2023-08-31T00:03:01;22.93;;;9.57;;
13061;SDS011;6597;52.218;9.882;2023-08-31T00:05:27;17.83;;;8.80;;
13061;SDS011;6597;52.218;9.882;2023-08-31T00:07:55;18.03;;;8.80;;
13061;SDS011;6597;52.218;9.882;2023-08-31T00:10:22;16.80;;;9.57;;
13061;SDS011;6597;52.218;9.882;2023-08-31T00:12:50;29.33;;;10.50;;
13061;SDS011;6597;52.218;9.882;2023-08-31T00:15:16;19.33;;;9.30;;
13061;SDS011;6597;52.218;9.882;2023-08-31T00:17:43;26.47;;;10.83;;
13061;SDS011;6597;52.218;9.882;2023-08-31T00:20:09;15.77;;;9.90;;
13061;SDS011;6597;52.218;9.882;2023-08-31T00:22:38;23.07;;;10.87;;
13061;SDS011;6597;52.218;9.882;2023-08-31T00:25:04;18.93;;;10.13;;
13061;SDS011;6597;52.218;9.882;2023-08-31T00:27:33;22.97;;;9.57;;
13061;SDS011;6597;52.218;9.882;2023-08-31T00:30:04;17.90;;;8.67;;
13061;SDS011;6597;52.218;9.882;2023-08-31T00:32:32;20.33;;;9.67;;
13061;SDS011;6597;52.218;9.882;2023-08-31T00:34:59;20.77;;;10.40;;
13061;SDS011;6597;52.218;9.882;2023-08-31T00:37:25;21.77;;;9.97;;
13061;SDS011;6597;52.218;9.882;2023-08-31T00:39:52;17.63;;;10.50;;
13061;SDS011;6597;52.218;9.882;2023-08-31T00:42:19;19.87;;;11.70;;
13061;SDS011;6597;52.218;9.882;2023-08-31T00:44:46;20.13;;;13.47;;
13061;SDS011;6597;52.218;9.882;2023-08-31T00:47:15;15.63;;;12.20;;
13061;SDS011;6597;52.218;9.882;2023-08-31T00:49:42;18.17;;;12.73;;
13061;SDS011;6597;52.218;9.882;2023-08-31T00:52:09;16.40;;;12.87;;
13061;SDS011;6597;52.218;9.882;2023-08-31T00:54:35;14.80;;;12.47;;
13061;SDS011;6597;52.218;9.882;2023-08-31T00:57:03;18.40;;;13.23;;
13061;SDS011;6597;52.218;9.882;2023-08-31T00:59:29;18.67;;;13.83;;
13061;SDS011;6597;52.218;9.882;2023-08-31T01:01:59;18.10;;;13.37;;
13061;SDS011;6597;52.218;9.882;2023-08-31T01:07:29;17.70;;;12.87;;
13061;SDS011;6597;52.218;9.882;2023-08-31T01:10:07;21.20;;;13.63;;
13061;SDS011;6597;52.218;9.882;2023-08-31T01:12:44;16.00;;;13.37;;
13061;SDS011;6597;52.218;9.882;2023-08-31T01:15:17;15.97;;;12.43;;
13061;SDS011;6597;52.218;9.882;2023-08-31T01:17:44;20.50;;;13.90;;
13061;SDS011;6597;52.218;9.882;2023-08-31T01:20:16;18.17;;;12.67;;
13061;SDS011;6597;52.218;9.882;2023-08-31T01:22:47;18.77;;;12.73;;
13061;SDS011;6597;52.218;9.882;2023-08-31T01:25:21;20.77;;;12.53;;
13061;SDS011;6597;52.218;9.882;2023-08-31T01:27:49;20.07;;;12.70;;
13061;SDS011;6597;52.218;9.882;2023-08-31T01:30:17;18.93;;;12.27;;
13061;SDS011;6597;52.218;9.882;2023-08-31T01:32:44;21.90;;;13.50;;
13061;SDS011;6597;52.218;9.882;2023-08-31T01:35:11;23.03;;;12.97;;
13061;SDS011;6597;52.218;9.882;2023-08-31T01:37:43;25.10;;;14.00;;
13061;SDS011;6597;52.218;9.882;2023-08-31T01:40:14;32.00;;;15.43;;
13061;SDS011;6597;52.218;9.882;2023-08-31T01:42:46;21.03;;;12.43;;
13061;SDS011;6597;52.218;9.882;2023-08-31T01:45:14;20.27;;;12.37;;
13061;SDS011;6597;52.218;9.882;2023-08-31T01:47:45;27.03;;;13.60;;
13061;SDS011;6597;52.218;9.882;2023-08-31T01:50:11;21.40;;;12.20;;
13061;SDS011;6597;52.218;9.882;2023-08-31T01:52:39;23.13;;;12.50;;
13061;SDS011;6597;52.218;9.882;2023-08-31T01:55:05;18.57;;;12.43;;
13061;SDS011;6597;52.218;9.882;2023-08-31T01:57:33;23.87;;;13.73;;
13061;SDS011;6597;52.218;9.882;2023-08-31T02:00:10;21.60;;;12.80;;
13061;SDS011;6597;52.218;9.882;2023-08-31T02:02:40;24.20;;;13.27;;
13061;SDS011;6597;52.218;9.882;2023-08-31T02:05:08;28.30;;;13.70;;
13061;SDS011;6597;52.218;9.882;2023-08-31T02:07:35;27.07;;;14.27;;
13061;SDS011;6597;52.218;9.882;2023-08-31T02:10:02;23.53;;;12.87;;
13061;SDS011;6597;52.218;9.882;2023-08-31T02:12:31;22.90;;;12.30;;
13061;SDS011;6597;52.218;9.882;2023-08-31T02:14:58;22.53;;;13.23;;
13061;SDS011;6597;52.218;9.882;2023-08-31T02:17:26;22.33;;;12.67;;
13061;SDS011;6597;52.218;9.882;2023-08-31T02:19:53;21.03;;;12.70;;
13061;SDS011;6597;52.218;9.882;2023-08-31T02:22:19;25.47;;;13.07;;
13061;SDS011;6597;52.218;9.882;2023-08-31T02:24:46;24.83;;;12.80;;
13061;SDS011;6597;52.218;9.882;2023-08-31T02:27:13;25.00;;;13.27;;
13061;SDS011;6597;52.218;9.882;2023-08-31T02:29:39;20.07;;;12.93;;
13061;SDS011;6597;52.218;9.882;2023-08-31T02:32:06;21.00;;;12.57;;
13061;SDS011;6597;52.218;9.882;2023-08-31T02:34:35;50.93;;;15.23;;
13061;SDS011;6597;52.218;9.882;2023-08-31T02:37:04;35.00;;;13.73;;
13061;SDS011;6597;52.218;9.882;2023-08-31T02:39:31;26.97;;;13.00;;
13061;SDS011;6597;52.218;9.882;2023-08-31T02:41:58;36.20;;;13.03;;
13061;SDS011;6597;52.218;9.882;2023-08-31T02:44:24;36.50;;;13.70;;
13061;SDS011;6597;52.218;9.882;2023-08-31T02:46:52;26.77;;;12.93;;
13061;SDS011;6597;52.218;9.882;2023-08-31T02:49:18;37.67;;;14.50;;
13061;SDS011;6597;52.218;9.882;2023-08-31T02:51:46;63.67;;;17.73;;
13061;SDS011;6597;52.218;9.882;2023-08-31T02:54:14;23.77;;;13.07;;
13061;SDS011;6597;52.218;9.882;2023-08-31T02:56:41;35.80;;;14.07;;
13061;SDS011;6597;52.218;9.882;2023-08-31T02:59:07;31.33;;;12.67;;
13061;SDS011;6597;52.218;9.882;2023-08-31T03:01:34;32.33;;;13.27;;
13061;SDS011;6597;52.218;9.882;2023-08-31T03:04:00;29.33;;;13.50;;
13061;SDS011;6597;52.218;9.882;2023-08-31T03:06:27;37.20;;;13.97;;
13061;SDS011;6597;52.218;9.882;2023-08-31T03:08:55;30.27;;;12.67;;
13061;SDS011;6597;52.218;9.882;2023-08-31T03:11:22;33.97;;;13.77;;
13061;SDS011;6597;52.218;9.882;2023-08-31T03:13:48;37.47;;;13.63;;
13061;SDS011;6597;52.218;9.882;2023-08-31T03:16:15;23.27;;;12.40;;
13061;SDS011;6597;52.218;9.882;2023-08-31T03:18:41;34.80;;;13.47;;
13061;SDS011;6597;52.218;9.882;2023-08-31T03:21:08;38.17;;;13.50;;
13061;SDS011;6597;52.218;9.882;2023-08-31T03:23:35;32.20;;;13.10;;
13061;SDS011;6597;52.218;9.882;2023-08-31T03:26:07;30.80;;;12.60;;
13061;SDS011;6597;52.218;9.882;2023-08-31T03:28:34;34.70;;;12.77;;
13061;SDS011;6597;52.218;9.882;2023-08-31T03:31:00;31.03;;;12.47;;
13061;SDS011;6597;52.218;9.882;2023-08-31T03:33:27;31.17;;;11.50;;
13061;SDS011;6597;52.218;9.882;2023-08-31T03:35:58;36.63;;;11.67;;
13061;SDS011;6597;52.218;9.882;2023-08-31T03:38:26;28.97;;;12.00;;
13061;SDS011;6597;52.218;9.882;2023-08-31T03:40:53;36.63;;;12.50;;
13061;SDS011;6597;52.218;9.882;2023-08-31T03:43:22;37.20;;;12.33;;
13061;SDS011;6597;52.218;9.882;2023-08-31T03:45:53;31.90;;;13.07;;
13061;SDS011;6597;52.218;9.882;2023-08-31T03:48:21;29.37;;;12.27;;
13061;SDS011;6597;52.218;9.882;2023-08-31T03:50:48;32.60;;;12.10;;
13061;SDS011;6597;52.218;9.882;2023-08-31T03:53:15;35.93;;;12.90;;
13061;SDS011;6597;52.218;9.882;2023-08-31T03:55:42;29.10;;;12.23;;
13061;SDS011;6597;52.218;9.882;2023-08-31T03:58:08;32.30;;;12.63;;
13061;SDS011;6597;52.218;9.882;2023-08-31T04:00:37;30.63;;;12.20;;
13061;SDS011;6597;52.218;9.882;2023-08-31T04:03:04;30.53;;;12.13;;
13061;SDS011;6597;52.218;9.882;2023-08-31T04:05:31;33.90;;;12.77;;
13061;SDS011;6597;52.218;9.882;2023-08-31T04:07:59;30.27;;;11.47;;
13061;SDS011;6597;52.218;9.882;2023-08-31T04:10:25;33.80;;;12.43;;
13061;SDS011;6597;52.218;9.882;2023-08-31T04:12:52;33.67;;;12.70;;
13061;SDS011;6597;52.218;9.882;2023-08-31T04:15:19;30.40;;;11.37;;
13061;SDS011;6597;52.218;9.882;2023-08-31T04:17:47;40.50;;;13.10;;
13061;SDS011;6597;52.218;9.882;2023-08-31T04:20:14;36.17;;;13.10;;
13061;SDS011;6597;52.218;9.882;2023-08-31T04:22:41;29.03;;;12.57;;
13061;SDS011;6597;52.218;9.882;2023-08-31T04:25:08;33.47;;;12.30;;
13061;SDS011;6597;52.218;9.882;2023-08-31T04:27:35;37.50;;;13.97;;
13061;SDS011;6597;52.218;9.882;2023-08-31T04:30:04;33.47;;;13.03;;
13061;SDS011;6597;52.218;9.882;2023-08-31T04:32:32;21.73;;;11.43;;
13061;SDS011;6597;52.218;9.882;2023-08-31T04:35:00;32.73;;;12.77;;
13061;SDS011;6597;52.218;9.882;2023-08-31T04:37:26;32.20;;;12.80;;
13061;SDS011;6597;52.218;9.882;2023-08-31T04:39:53;32.17;;;12.13;;
13061;SDS011;6597;52.218;9.882;2023-08-31T04:42:19;23.53;;;11.37;;
13061;SDS011;6597;52.218;9.882;2023-08-31T04:44:46;35.10;;;13.83;;
13061;SDS011;6597;52.218;9.882;2023-08-31T04:47:12;29.53;;;12.87;;
13061;SDS011;6597;52.218;9.882;2023-08-31T04:49:39;36.33;;;13.13;;
13061;SDS011;6597;52.218;9.882;2023-08-31T04:52:07;35.87;;;12.97;;
13061;SDS011;6597;52.218;9.882;2023-08-31T04:54:33;37.30;;;12.97;;
13061;SDS011;6597;52.218;9.882;2023-08-31T04:57:00;24.30;;;11.60;;
13061;SDS011;6597;52.218;9.882;2023-08-31T04:59:28;29.60;;;12.40;;
13061;SDS011;6597;52.218;9.882;2023-08-31T05:01:55;35.50;;;12.97;;
13061;SDS011;6597;52.218;9.882;2023-08-31T05:04:21;31.87;;;13.43;;
13061;SDS011;6597;52.218;9.882;2023-08-31T05:06:48;35.07;;;14.20;;
13061;SDS011;6597;52.218;9.882;2023-08-31T05:09:16;46.13;;;16.53;;
13061;SDS011;6597;52.218;9.882;2023-08-31T05:11:44;38.13;;;16.30;;
13061;SDS011;6597;52.218;9.882;2023-08-31T05:14:10;36.27;;;16.63;;
13061;SDS011;6597;52.218;9.882;2023-08-31T05:16:37;27.80;;;15.93;;
13061;SDS011;6597;52.218;9.882;2023-08-31T05:19:03;47.90;;;17.53;;
13061;SDS011;6597;52.218;9.882;2023-08-31T05:21:30;34.40;;;16.20;;
13061;SDS011;6597;52.218;9.882;2023-08-31T05:23:56;50.50;;;17.97;;
13061;SDS011;6597;52.218;9.882;2023-08-31T05:26:24;41.10;;;16.77;;
13061;SDS011;6597;52.218;9.882;2023-08-31T05:28:51;40.77;;;16.77;;
13061;SDS011;6597;52.218;9.882;2023-08-31T05:31:17;41.47;;;16.60;;
13061;SDS011;6597;52.218;9.882;2023-08-31T05:33:44;35.90;;;16.83;;
13061;SDS011;6597;52.218;9.882;2023-08-31T05:36:10;42.00;;;16.77;;
13061;SDS011;6597;52.218;9.882;2023-08-31T05:38:37;37.70;;;17.03;;
13061;SDS011;6597;52.218;9.882;2023-08-31T05:41:04;51.20;;;17.97;;
13061;SDS011;6597;52.218;9.882;2023-08-31T05:43:33;37.63;;;17.67;;
13061;SDS011;6597;52.218;9.882;2023-08-31T05:46:00;49.97;;;18.57;;
13061;SDS011;6597;52.218;9.882;2023-08-31T05:48:28;41.57;;;16.73;;
13061;SDS011;6597;52.218;9.882;2023-08-31T05:50:54;50.03;;;19.17;;
13061;SDS011;6597;52.218;9.882;2023-08-31T05:53:21;41.20;;;18.47;;
13061;SDS011;6597;52.218;9.882;2023-08-31T05:55:47;43.37;;;20.10;;
13061;SDS011;6597;52.218;9.882;2023-08-31T05:58:14;40.67;;;18.40;;
13061;SDS011;6597;52.218;9.882;2023-08-31T06:00:42;42.70;;;19.67;;
13061;SDS011;6597;52.218;9.882;2023-08-31T06:03:08;45.03;;;19.30;;
13061;SDS011;6597;52.218;9.882;2023-08-31T06:05:35;33.50;;;18.37;;
13061;SDS011;6597;52.218;9.882;2023-08-31T06:08:03;42.50;;;20.77;;
13061;SDS011;6597;52.218;9.882;2023-08-31T06:10:30;53.33;;;21.43;;
13061;SDS011;6597;52.218;9.882;2023-08-31T06:12:57;48.93;;;20.33;;
13061;SDS011;6597;52.218;9.882;2023-08-31T06:15:23;41.83;;;19.47;;
13061;SDS011;6597;52.218;9.882;2023-08-31T06:17:51;43.63;;;19.03;;
13061;SDS011;6597;52.218;9.882;2023-08-31T06:20:18;34.90;;;18.50;;
13061;SDS011;6597;52.218;9.882;2023-08-31T06:22:44;47.70;;;20.13;;
13061;SDS011;6597;52.218;9.882;2023-08-31T06:25:11;39.13;;;17.83;;
13061;SDS011;6597;52.218;9.882;2023-08-31T06:27:41;55.87;;;19.60;;
13061;SDS011;6597;52.218;9.882;2023-08-31T06:30:08;36.07;;;16.93;;
13061;SDS011;6597;52.218;9.882;2023-08-31T06:32:37;37.13;;;16.37;;
13061;SDS011;6597;52.218;9.882;2023-08-31T06:35:05;49.87;;;15.33;;
13061;SDS011;6597;52.218;9.882;2023-08-31T06:37:32;51.33;;;16.37;;
13061;SDS011;6597;52.218;9.882;2023-08-31T06:39:58;39.97;;;14.40;;
13061;SDS011;6597;52.218;9.882;2023-08-31T06:42:25;36.13;;;13.80;;
13061;SDS011;6597;52.218;9.882;2023-08-31T06:44:52;36.83;;;13.33;;
13061;SDS011;6597;52.218;9.882;2023-08-31T06:47:21;31.83;;;13.27;;
13061;SDS011;6597;52.218;9.882;2023-08-31T06:49:47;33.23;;;13.77;;
13061;SDS011;6597;52.218;9.882;2023-08-31T06:52:15;35.97;;;13.33;;
13061;SDS011;6597;52.218;9.882;2023-08-31T06:54:42;36.93;;;14.77;;
13061;SDS011;6597;52.218;9.882;2023-08-31T06:57:09;35.13;;;14.40;;
13061;SDS011;6597;52.218;9.882;2023-08-31T06:59:36;35.93;;;12.67;;
13061;SDS011;6597;52.218;9.882;2023-08-31T07:02:02;31.27;;;11.47;;
13061;SDS011;6597;52.218;9.882;2023-08-31T07:04:29;24.53;;;11.17;;
13061;SDS011;6597;52.218;9.882;2023-08-31T07:06:56;28.77;;;11.57;;
13061;SDS011;6597;52.218;9.882;2023-08-31T07:09:23;31.80;;;11.43;;
13061;SDS011;6597;52.218;9.882;2023-08-31T07:11:52;38.43;;;11.10;;
13061;SDS011;6597;52.218;9.882;2023-08-31T07:14:18;39.37;;;11.37;;
13061;SDS011;6597;52.218;9.882;2023-08-31T07:16:45;25.63;;;9.90;;
13061;SDS011;6597;52.218;9.882;2023-08-31T07:19:11;35.73;;;10.03;;
13061;SDS011;6597;52.218;9.882;2023-08-31T07:21:38;27.00;;;9.70;;
13061;SDS011;6597;52.218;9.882;2023-08-31T07:24:05;32.27;;;9.63;;
13061;SDS011;6597;52.218;9.882;2023-08-31T07:26:33;27.70;;;8.57;;
13061;SDS011;6597;52.218;9.882;2023-08-31T07:28:59;32.93;;;8.90;;
13061;SDS011;6597;52.218;9.882;2023-08-31T07:31:26;26.50;;;8.37;;
13061;SDS011;6597;52.218;9.882;2023-08-31T07:33:53;34.77;;;8.17;;
13061;SDS011;6597;52.218;9.882;2023-08-31T07:36:19;27.27;;;7.03;;
13061;SDS011;6597;52.218;9.882;2023-08-31T07:38:46;33.57;;;8.43;;
13061;SDS011;6597;52.218;9.882;2023-08-31T07:41:12;22.30;;;7.27;;
13061;SDS011;6597;52.218;9.882;2023-08-31T07:43:40;21.63;;;6.23;;
13061;SDS011;6597;52.218;9.882;2023-08-31T07:46:07;22.07;;;6.30;;
13061;SDS011;6597;52.218;9.882;2023-08-31T07:48:33;25.77;;;6.20;;
13061;SDS011;6597;52.218;9.882;2023-08-31T07:51:00;25.57;;;6.43;;
13061;SDS011;6597;52.218;9.882;2023-08-31T07:53:26;24.03;;;6.73;;
13061;SDS011;6597;52.218;9.882;2023-08-31T07:55:54;21.00;;;6.17;;
13061;SDS011;6597;52.218;9.882;2023-08-31T07:58:21;22.57;;;6.00;;
13061;SDS011;6597;52.218;9.882;2023-08-31T08:00:51;30.70;;;7.10;;
13061;SDS011;6597;52.218;9.882;2023-08-31T08:03:18;28.93;;;7.00;;
13061;SDS011;6597;52.218;9.882;2023-08-31T08:05:45;21.60;;;6.10;;
13061;SDS011;6597;52.218;9.882;2023-08-31T08:08:11;28.77;;;6.50;;
13061;SDS011;6597;52.218;9.882;2023-08-31T08:10:38;32.47;;;6.87;;
13061;SDS011;6597;52.218;9.882;2023-08-31T08:13:04;25.27;;;6.00;;
13061;SDS011;6597;52.218;9.882;2023-08-31T08:15:31;25.47;;;5.43;;
13061;SDS011;6597;52.218;9.882;2023-08-31T08:17:59;31.37;;;6.10;;
13061;SDS011;6597;52.218;9.882;2023-08-31T08:20:26;31.73;;;6.20;;
13061;SDS011;6597;52.218;9.882;2023-08-31T08:22:53;34.22;;;6.43;;
13061;SDS011;6597;52.218;9.882;2023-08-31T08:25:21;29.90;;;5.33;;
13061;SDS011;6597;52.218;9.882;2023-08-31T08:27:48;64.72;;;8.38;;
13061;SDS011;6597;52.218;9.882;2023-08-31T08:30:14;24.10;;;4.80;;
13061;SDS011;6597;52.218;9.882;2023-08-31T08:32:41;33.23;;;6.23;;
13061;SDS011;6597;52.218;9.882;2023-08-31T08:35:09;161.90;;;14.27;;
13061;SDS011;6597;52.218;9.882;2023-08-31T08:37:36;51.67;;;7.72;;
13061;SDS011;6597;52.218;9.882;2023-08-31T08:40:03;35.83;;;5.53;;
13061;SDS011;6597;52.218;9.882;2023-08-31T08:42:30;17.03;;;4.20;;
13061;SDS011;6597;52.218;9.882;2023-08-31T08:44:57;25.40;;;4.90;;
13061;SDS011;6597;52.218;9.882;2023-08-31T08:47:25;18.33;;;4.53;;
13061;SDS011;6597;52.218;9.882;2023-08-31T08:49:51;15.43;;;4.00;;
13061;SDS011;6597;52.218;9.882;2023-08-31T08:52:21;25.02;;;4.18;;
13061;SDS011;6597;52.218;9.882;2023-08-31T08:54:48;15.00;;;4.00;;
13061;SDS011;6597;52.218;9.882;2023-08-31T08:57:15;15.90;;;3.90;;
13061;SDS011;6597;52.218;9.882;2023-08-31T08:59:42;10.13;;;3.35;;
13061;SDS011;6597;52.218;9.882;2023-08-31T09:02:10;12.50;;;3.47;;
13061;SDS011;6597;52.218;9.882;2023-08-31T09:04:37;19.88;;;3.83;;
13061;SDS011;6597;52.218;9.882;2023-08-31T09:07:03;16.02;;;3.60;;
13061;SDS011;6597;52.218;9.882;2023-08-31T09:09:32;17.58;;;3.67;;
13061;SDS011;6597;52.218;9.882;2023-08-31T09:12:05;20.50;;;3.60;;
13061;SDS011;6597;52.218;9.882;2023-08-31T09:14:32;11.35;;;2.95;;
13061;SDS011;6597;52.218;9.882;2023-08-31T09:16:59;21.42;;;4.13;;
13061;SDS011;6597;52.218;9.882;2023-08-31T09:19:25;12.20;;;3.40;;
13061;SDS011;6597;52.218;9.882;2023-08-31T09:21:55;16.50;;;3.65;;
13061;SDS011;6597;52.218;9.882;2023-08-31T09:24:23;10.95;;;3.05;;
13061;SDS011;6597;52.218;9.882;2023-08-31T09:26:52;14.35;;;3.25;;
13061;SDS011;6597;52.218;9.882;2023-08-31T09:29:19;15.57;;;3.10;;
13061;SDS011;6597;52.218;9.882;2023-08-31T09:31:46;16.60;;;3.20;;
13061;SDS011;6597;52.218;9.882;2023-08-31T09:34:13;16.98;;;3.45;;
13061;SDS011;6597;52.218;9.882;2023-08-31T09:36:41;16.58;;;3.67;;
13061;SDS011;6597;52.218;9.882;2023-08-31T09:39:08;7.35;;;3.33;;
13061;SDS011;6597;52.218;9.882;2023-08-31T09:41:38;16.67;;;3.90;;
13061;SDS011;6597;52.218;9.882;2023-08-31T09:44:20;9.60;;;3.28;;
13061;SDS011;6597;52.218;9.882;2023-08-31T09:46:47;11.05;;;3.42;;
13061;SDS011;6597;52.218;9.882;2023-08-31T09:49:14;6.50;;;2.67;;
13061;SDS011;6597;52.218;9.882;2023-08-31T09:51:43;15.10;;;3.60;;
13061;SDS011;6597;52.218;9.882;2023-08-31T09:54:12;12.32;;;3.75;;
13061;SDS011;6597;52.218;9.882;2023-08-31T09:56:40;7.38;;;2.63;;
13061;SDS011;6597;52.218;9.882;2023-08-31T09:59:09;10.50;;;2.92;;
13061;SDS011;6597;52.218;9.882;2023-08-31T10:01:36;8.48;;;3.13;;
13061;SDS011;6597;52.218;9.882;2023-08-31T10:04:03;11.70;;;3.03;;
13061;SDS011;6597;52.218;9.882;2023-08-31T10:06:33;13.07;;;3.00;;
13061;SDS011;6597;52.218;9.882;2023-08-31T10:09:00;12.82;;;2.97;;
13061;SDS011;6597;52.218;9.882;2023-08-31T10:11:28;13.98;;;3.28;;
13061;SDS011;6597;52.218;9.882;2023-08-31T10:13:56;11.38;;;3.08;;
13061;SDS011;6597;52.218;9.882;2023-08-31T10:16:26;15.05;;;3.50;;
13061;SDS011;6597;52.218;9.882;2023-08-31T10:18:53;16.58;;;3.80;;
13061;SDS011;6597;52.218;9.882;2023-08-31T10:21:21;10.70;;;2.83;;
13061;SDS011;6597;52.218;9.882;2023-08-31T10:23:49;12.88;;;2.85;;
13061;SDS011;6597;52.218;9.882;2023-08-31T10:26:23;14.18;;;3.22;;
13061;SDS011;6597;52.218;9.882;2023-08-31T10:28:51;14.85;;;3.08;;
13061;SDS011;6597;52.218;9.882;2023-08-31T10:31:18;10.32;;;2.78;;
13061;SDS011;6597;52.218;9.882;2023-08-31T10:33:47;14.55;;;3.05;;
13061;SDS011;6597;52.218;9.882;2023-08-31T10:36:20;14.07;;;3.25;;
13061;SDS011;6597;52.218;9.882;2023-08-31T10:38:51;12.82;;;3.17;;
13061;SDS011;6597;52.218;9.882;2023-08-31T10:41:32;16.85;;;3.92;;
13061;SDS011;6597;52.218;9.882;2023-08-31T10:43:59;9.23;;;3.67;;
13061;SDS011;6597;52.218;9.882;2023-08-31T10:46:27;12.85;;;3.40;;
13061;SDS011;6597;52.218;9.882;2023-08-31T10:48:56;8.82;;;3.47;;
13061;SDS011;6597;52.218;9.882;2023-08-31T10:51:25;10.90;;;4.03;;
13061;SDS011;6597;52.218;9.882;2023-08-31T10:54:03;10.32;;;4.40;;
13061;SDS011;6597;52.218;9.882;2023-08-31T10:56:30;13.73;;;4.10;;
13061;SDS011;6597;52.218;9.882;2023-08-31T10:58:58;15.63;;;4.65;;
13061;SDS011;6597;52.218;9.882;2023-08-31T11:04:20;10.75;;;3.92;;
13061;SDS011;6597;52.218;9.882;2023-08-31T11:06:47;13.30;;;3.95;;
13061;SDS011;6597;52.218;9.882;2023-08-31T11:09:17;16.27;;;4.75;;
13061;SDS011;6597;52.218;9.882;2023-08-31T11:11:45;9.38;;;3.88;;
13061;SDS011;6597;52.218;9.882;2023-08-31T11:14:11;11.45;;;4.40;;
13061;SDS011;6597;52.218;9.882;2023-08-31T11:16:38;11.50;;;3.88;;
13061;SDS011;6597;52.218;9.882;2023-08-31T11:19:05;11.63;;;4.32;;
13061;SDS011;6597;52.218;9.882;2023-08-31T11:21:33;15.38;;;4.10;;
13061;SDS011;6597;52.218;9.882;2023-08-31T11:23:59;10.30;;;4.13;;
13061;SDS011;6597;52.218;9.882;2023-08-31T11:26:26;10.52;;;4.50;;
13061;SDS011;6597;52.218;9.882;2023-08-31T11:28:55;14.43;;;5.22;;
13061;SDS011;6597;52.218;9.882;2023-08-31T11:31:25;7.45;;;3.47;;
13061;SDS011;6597;52.218;9.882;2023-08-31T11:33:53;13.98;;;4.22;;
13061;SDS011;6597;52.218;9.882;2023-08-31T11:36:21;31.60;;;5.40;;
13061;SDS011;6597;52.218;9.882;2023-08-31T11:38:49;17.50;;;4.43;;
13061;SDS011;6597;52.218;9.882;2023-08-31T11:41:16;20.50;;;4.22;;
13061;SDS011;6597;52.218;9.882;2023-08-31T11:43:43;21.33;;;4.40;;
13061;SDS011;6597;52.218;9.882;2023-08-31T11:46:10;18.55;;;5.03;;
13061;SDS011;6597;52.218;9.882;2023-08-31T11:48:37;10.38;;;3.92;;
13061;SDS011;6597;52.218;9.882;2023-08-31T11:51:05;8.90;;;3.75;;
13061;SDS011;6597;52.218;9.882;2023-08-31T11:53:32;11.43;;;3.67;;
13061;SDS011;6597;52.218;9.882;2023-08-31T11:56:02;9.57;;;3.95;;
13061;SDS011;6597;52.218;9.882;2023-08-31T11:58:29;10.10;;;4.55;;
13061;SDS011;6597;52.218;9.882;2023-08-31T12:00:56;8.68;;;3.90;;
13061;SDS011;6597;52.218;9.882;2023-08-31T12:03:23;6.90;;;3.22;;
13061;SDS011;6597;52.218;9.882;2023-08-31T12:05:51;5.20;;;3.08;;
13061;SDS011;6597;52.218;9.882;2023-08-31T12:08:23;8.95;;;3.13;;
13061;SDS011;6597;52.218;9.882;2023-08-31T12:10:51;8.40;;;3.47;;
13061;SDS011;6597;52.218;9.882;2023-08-31T12:13:18;11.13;;;3.58;;
13061;SDS011;6597;52.218;9.882;2023-08-31T12:15:45;7.00;;;3.35;;
13061;SDS011;6597;52.218;9.882;2023-08-31T12:18:12;10.40;;;3.55;;
13061;SDS011;6597;52.218;9.882;2023-08-31T12:20:43;11.52;;;3.47;;
13061;SDS011;6597;52.218;9.882;2023-08-31T12:23:10;15.48;;;3.67;;
13061;SDS011;6597;52.218;9.882;2023-08-31T12:25:37;13.43;;;3.92;;
13061;SDS011;6597;52.218;9.882;2023-08-31T12:28:04;8.73;;;3.13;;
13061;SDS011;6597;52.218;9.882;2023-08-31T12:30:32;9.18;;;2.65;;
13061;SDS011;6597;52.218;9.882;2023-08-31T12:32:58;9.20;;;3.00;;
13061;SDS011;6597;52.218;9.882;2023-08-31T12:35:25;13.30;;;3.40;;
13061;SDS011;6597;52.218;9.882;2023-08-31T12:37:51;17.92;;;3.20;;
13061;SDS011;6597;52.218;9.882;2023-08-31T12:40:18;13.68;;;2.45;;
13061;SDS011;6597;52.218;9.882;2023-08-31T12:42:45;15.82;;;3.00;;
13061;SDS011;6597;52.218;9.882;2023-08-31T12:45:12;14.75;;;2.70;;
13061;SDS011;6597;52.218;9.882;2023-08-31T12:47:39;18.05;;;3.33;;
13061;SDS011;6597;52.218;9.882;2023-08-31T12:50:06;12.38;;;1.90;;
13061;SDS011;6597;52.218;9.882;2023-08-31T12:52:33;10.05;;;2.03;;
13061;SDS011;6597;52.218;9.882;2023-08-31T12:54:59;6.55;;;1.58;;
13061;SDS011;6597;52.218;9.882;2023-08-31T12:57:26;10.52;;;1.70;;
13061;SDS011;6597;52.218;9.882;2023-08-31T12:59:53;11.07;;;1.70;;
13061;SDS011;6597;52.218;9.882;2023-08-31T13:02:19;9.93;;;1.90;;
13061;SDS011;6597;52.218;9.882;2023-08-31T13:04:47;7.55;;;1.40;;
13061;SDS011;6597;52.218;9.882;2023-08-31T13:07:15;10.35;;;1.75;;
13061;SDS011;6597;52.218;9.882;2023-08-31T13:09:42;9.50;;;1.65;;
13061;SDS011;6597;52.218;9.882;2023-08-31T13:12:08;8.13;;;1.48;;
13061;SDS011;6597;52.218;9.882;2023-08-31T13:14:35;10.05;;;1.83;;
13061;SDS011;6597;52.218;9.882;2023-08-31T13:17:01;8.43;;;1.95;;
13061;SDS011;6597;52.218;9.882;2023-08-31T13:19:28;8.35;;;2.00;;
13061;SDS011;6597;52.218;9.882;2023-08-31T13:21:56;5.30;;;1.63;;
13061;SDS011;6597;52.218;9.882;2023-08-31T13:24:23;9.35;;;1.90;;
13061;SDS011;6597;52.218;9.882;2023-08-31T13:26:49;8.35;;;2.13;;
13061;SDS011;6597;52.218;9.882;2023-08-31T13:29:16;5.93;;;1.67;;
13061;SDS011;6597;52.218;9.882;2023-08-31T13:31:42;8.45;;;2.20;;
13061;SDS011;6597;52.218;9.882;2023-08-31T13:34:09;6.15;;;1.90;;
13061;SDS011;6597;52.218;9.882;2023-08-31T13:36:36;9.60;;;2.25;;
13061;SDS011;6597;52.218;9.882;2023-08-31T13:39:04;18.13;;;2.60;;
13061;SDS011;6597;52.218;9.882;2023-08-31T13:41:32;20.08;;;2.25;;
13061;SDS011;6597;52.218;9.882;2023-08-31T13:43:58;16.92;;;2.42;;
13061;SDS011;6597;52.218;9.882;2023-08-31T13:46:25;15.65;;;1.98;;
13061;SDS011;6597;52.218;9.882;2023-08-31T13:48:51;21.48;;;2.20;;
13061;SDS011;6597;52.218;9.882;2023-08-31T13:51:18;6.60;;;1.55;;
13061;SDS011;6597;52.218;9.882;2023-08-31T13:53:45;13.68;;;2.60;;
13061;SDS011;6597;52.218;9.882;2023-08-31T13:56:13;7.10;;;1.80;;
13061;SDS011;6597;52.218;9.882;2023-08-31T13:58:40;6.60;;;1.80;;
13061;SDS011;6597;52.218;9.882;2023-08-31T14:01:07;7.63;;;1.75;;
13061;SDS011;6597;52.218;9.882;2023-08-31T14:03:33;14.93;;;2.22;;
13061;SDS011;6597;52.218;9.882;2023-08-31T14:06:00;21.77;;;2.67;;
13061;SDS011;6597;52.218;9.882;2023-08-31T14:08:26;14.98;;;1.70;;
13061;SDS011;6597;52.218;9.882;2023-08-31T14:10:53;15.48;;;2.00;;
13061;SDS011;6597;52.218;9.882;2023-08-31T14:13:21;17.40;;;2.22;;
13061;SDS011;6597;52.218;9.882;2023-08-31T14:15:48;11.77;;;1.92;;
13061;SDS011;6597;52.218;9.882;2023-08-31T14:18:14;21.13;;;2.30;;
13061;SDS011;6597;52.218;9.882;2023-08-31T14:20:41;19.23;;;2.50;;
13061;SDS011;6597;52.218;9.882;2023-08-31T14:23:08;10.68;;;1.52;;
13061;SDS011;6597;52.218;9.882;2023-08-31T14:25:34;16.40;;;1.98;;
13061;SDS011;6597;52.218;9.882;2023-08-31T14:28:02;24.70;;;2.50;;
13061;SDS011;6597;52.218;9.882;2023-08-31T14:30:31;16.20;;;2.08;;
13061;SDS011;6597;52.218;9.882;2023-08-31T14:32:57;15.35;;;2.15;;
13061;SDS011;6597;52.218;9.882;2023-08-31T14:35:24;16.73;;;2.10;;
13061;SDS011;6597;52.218;9.882;2023-08-31T14:37:50;16.63;;;2.10;;
13061;SDS011;6597;52.218;9.882;2023-08-31T14:40:17;17.73;;;1.88;;
13061;SDS011;6597;52.218;9.882;2023-08-31T14:42:45;17.00;;;1.88;;
13061;SDS011;6597;52.218;9.882;2023-08-31T14:45:11;21.95;;;2.60;;
13061;SDS011;6597;52.218;9.882;2023-08-31T14:47:39;20.30;;;2.70;;
13061;SDS011;6597;52.218;9.882;2023-08-31T14:50:06;18.83;;;2.50;;